Time;durP1;ratioP1;P1;durP2;ratioP2;P2;SDS_P1;SDS_P2;PMS_P1;PMS_P2;Temp;Humidity;BMP_temperature;BMP_pressure;BME280_temperature;BME280_humidity;BME280_pressure;Samples;Min_cycle;Max_cycle;Signal;HPM_P1;HPM_P2
2022/06/19 00:02:25;;;;;;;5.78;2.67;;;;;;;;;;5005095;28;20722;-59
2022/06/19 00:04:54;;;;;;;5.40;2.55;;;;;;;;;;5004906;28;21073;-59
2022/06/19 00:07:21;;;;;;;6.35;2.38;;;;;;;;;;5004765;28;21033;-58
2022/06/19 00:09:49;;;;;;;8.90;2.65;;;;;;;;;;5005087;28;20318;-57
2022/06/19 00:12:17;;;;;;;5.25;2.60;;;;;;;;;;5004299;28;20207;-59
2022/06/19 00:14:44;;;;;;;7.63;2.78;;;;;;;;;;4993950;28;20241;-59
2022/06/19 00:17:13;;;;;;;9.57;2.58;;;;;;;;;;5004728;28;20205;-58
2022/06/19 00:19:40;;;;;;;5.07;3.47;;;;;;;;;;5004405;28;20247;-58
2022/06/19 00:22:08;;;;;;;6.20;3.08;;;;;;;;;;5004816;28;20237;-59
2022/06/19 00:24:35;;;;;;;7.53;2.92;;;;;;;;;;5005084;28;20213;-59
2022/06/19 00:27:04;;;;;;;9.00;3.67;;;;;;;;;;5004528;28;20253;-59
2022/06/19 00:29:31;;;;;;;15.43;3.03;;;;;;;;;;5005014;28;20644;-59
2022/06/19 00:31:58;;;;;;;4.35;2.47;;;;;;;;;;5003719;28;20213;-59
2022/06/19 00:34:25;;;;;;;7.53;2.92;;;;;;;;;;5004563;28;20241;-58
2022/06/19 00:36:52;;;;;;;2.67;2.47;;;;;;;;;;5004659;28;20632;-58
2022/06/19 00:39:20;;;;;;;5.57;2.65;;;;;;;;;;5004725;28;20205;-58
2022/06/19 00:41:47;;;;;;;8.60;2.80;;;;;;;;;;5007019;28;20225;-58
2022/06/19 00:44:17;;;;;;;4.72;2.35;;;;;;;;;;5008573;28;20235;-59
2022/06/19 00:46:46;;;;;;;4.72;2.53;;;;;;;;;;5008442;28;20208;-59
2022/06/19 00:49:16;;;;;;;3.13;2.78;;;;;;;;;;5008062;28;20216;-59
2022/06/19 00:51:44;;;;;;;5.45;2.95;;;;;;;;;;5008652;28;20208;-59
2022/06/19 00:54:13;;;;;;;5.95;3.05;;;;;;;;;;5008211;28;20213;-58
2022/06/19 00:56:40;;;;;;;3.95;2.78;;;;;;;;;;4999250;28;20338;-59
2022/06/19 00:59:08;;;;;;;2.92;2.60;;;;;;;;;;5007961;28;20595;-59
2022/06/19 01:01:36;;;;;;;4.82;2.75;;;;;;;;;;5008464;28;20247;-59
2022/06/19 01:04:05;;;;;;;5.72;3.00;;;;;;;;;;5008251;28;20217;-59
2022/06/19 01:06:33;;;;;;;5.55;3.00;;;;;;;;;;5008262;28;20811;-58
2022/06/19 01:09:00;;;;;;;5.32;2.70;;;;;;;;;;5007428;28;20211;-59
2022/06/19 01:11:30;;;;;;;4.80;2.83;;;;;;;;;;5008540;28;20208;-59
2022/06/19 01:13:58;;;;;;;6.10;2.92;;;;;;;;;;5007567;28;20240;-58
2022/06/19 01:16:25;;;;;;;2.80;2.70;;;;;;;;;;5007714;28;20205;-59
2022/06/19 01:18:54;;;;;;;4.70;2.88;;;;;;;;;;5007957;28;20248;-59
2022/06/19 01:21:25;;;;;;;6.65;3.00;;;;;;;;;;5007806;28;20232;-59
2022/06/19 01:23:55;;;;;;;5.13;2.35;;;;;;;;;;5007834;28;20287;-58
2022/06/19 01:26:24;;;;;;;4.93;2.90;;;;;;;;;;5007954;28;20233;-58
2022/06/19 01:28:56;;;;;;;7.20;2.80;;;;;;;;;;5007503;28;20622;-59
2022/06/19 01:31:26;;;;;;;8.20;3.15;;;;;;;;;;5007759;28;20203;-59
2022/06/19 01:33:54;;;;;;;3.15;2.88;;;;;;;;;;5007466;28;20213;-58
2022/06/19 01:36:22;;;;;;;3.05;2.22;;;;;;;;;;5007543;28;20772;-58
2022/06/19 01:38:52;;;;;;;5.93;3.00;;;;;;;;;;5007524;28;20678;-59
2022/06/19 01:41:21;;;;;;;3.53;2.42;;;;;;;;;;5006990;28;20204;-59
2022/06/19 01:43:50;;;;;;;9.68;3.20;;;;;;;;;;5006751;28;20212;-59
2022/06/19 01:46:17;;;;;;;8.55;3.58;;;;;;;;;;5006897;28;20213;-58
2022/06/19 01:48:44;;;;;;;5.20;3.17;;;;;;;;;;5006956;28;20330;-58
2022/06/19 01:51:11;;;;;;;6.18;2.95;;;;;;;;;;5007429;28;20213;-58
2022/06/19 01:53:40;;;;;;;3.28;2.97;;;;;;;;;;5006915;28;20267;-58
2022/06/19 01:56:08;;;;;;;5.00;3.10;;;;;;;;;;5007041;28;20220;-58
2022/06/19 01:58:36;;;;;;;4.05;3.08;;;;;;;;;;5007303;28;20213;-59
2022/06/19 02:01:05;;;;;;;10.60;3.65;;;;;;;;;;5006170;28;21003;-59
2022/06/19 02:03:36;;;;;;;5.53;3.35;;;;;;;;;;5006807;28;20411;-59
2022/06/19 02:06:03;;;;;;;4.93;3.20;;;;;;;;;;5007159;28;20209;-58
2022/06/19 02:08:31;;;;;;;5.35;2.63;;;;;;;;;;5003796;28;20217;-58
2022/06/19 02:10:59;;;;;;;3.33;2.67;;;;;;;;;;5006164;28;20224;-59
2022/06/19 02:13:26;;;;;;;7.72;2.97;;;;;;;;;;5006355;28;20209;-59
2022/06/19 02:15:54;;;;;;;6.20;2.95;;;;;;;;;;5006615;28;20296;-59
2022/06/19 02:18:24;;;;;;;4.20;2.75;;;;;;;;;;5006573;28;20205;-59
2022/06/19 02:20:51;;;;;;;6.35;2.67;;;;;;;;;;5006685;28;20644;-59
2022/06/19 02:23:20;;;;;;;2.70;2.50;;;;;;;;;;5006197;28;20228;-58
2022/06/19 02:25:49;;;;;;;5.43;3.05;;;;;;;;;;5006510;28;20228;-58
2022/06/19 02:28:18;;;;;;;6.32;2.60;;;;;;;;;;5005978;28;20239;-58
2022/06/19 02:30:45;;;;;;;9.30;3.30;;;;;;;;;;5006314;28;20209;-58
2022/06/19 02:33:14;;;;;;;2.55;2.30;;;;;;;;;;5005991;28;20209;-59
2022/06/19 02:35:43;;;;;;;6.07;3.30;;;;;;;;;;5006182;28;20208;-58
2022/06/19 02:38:10;;;;;;;7.68;2.90;;;;;;;;;;5006254;28;20280;-58
2022/06/19 02:40:41;;;;;;;9.02;3.17;;;;;;;;;;5006242;28;20216;-59
2022/06/19 02:43:09;;;;;;;6.63;3.15;;;;;;;;;;5005875;28;20332;-59
2022/06/19 02:45:39;;;;;;;6.32;3.22;;;;;;;;;;5006088;28;20209;-58
2022/06/19 02:48:07;;;;;;;5.28;2.80;;;;;;;;;;5005867;28;20205;-58
2022/06/19 02:50:35;;;;;;;7.13;2.72;;;;;;;;;;5005724;28;20217;-58
2022/06/19 02:53:03;;;;;;;6.60;2.90;;;;;;;;;;5005898;28;20283;-59
2022/06/19 02:55:30;;;;;;;10.60;3.50;;;;;;;;;;5006183;28;20217;-59
2022/06/19 02:57:57;;;;;;;6.07;2.90;;;;;;;;;;5004509;28;20209;-58
2022/06/19 03:00:25;;;;;;;6.10;3.05;;;;;;;;;;5009854;28;20208;-58
2022/06/19 03:02:54;;;;;;;5.50;2.53;;;;;;;;;;5009987;28;20882;-58
2022/06/19 03:05:22;;;;;;;13.65;2.95;;;;;;;;;;5008604;28;20238;-58
2022/06/19 03:07:49;;;;;;;6.50;2.92;;;;;;;;;;5009698;28;20232;-58
2022/06/19 03:10:18;;;;;;;6.20;2.85;;;;;;;;;;5009836;28;20555;-58
2022/06/19 03:12:46;;;;;;;6.53;3.22;;;;;;;;;;5016678;28;20262;-59
2022/06/19 03:15:14;;;;;;;3.33;2.78;;;;;;;;;;5009369;28;20649;-59
2022/06/19 03:17:41;;;;;;;8.35;3.05;;;;;;;;;;5009183;28;20205;-59
2022/06/19 03:20:10;;;;;;;5.32;2.92;;;;;;;;;;5009033;28;20561;-59
2022/06/19 03:22:37;;;;;;;10.35;3.22;;;;;;;;;;5009480;28;20235;-59
2022/06/19 03:25:04;;;;;;;4.18;2.70;;;;;;;;;;5008494;28;20205;-59
2022/06/19 03:27:32;;;;;;;7.95;3.75;;;;;;;;;;5008155;28;20237;-59
2022/06/19 03:29:59;;;;;;;7.15;2.92;;;;;;;;;;5008959;28;20233;-58
2022/06/19 03:32:26;;;;;;;5.47;2.97;;;;;;;;;;5008875;28;20224;-58
2022/06/19 03:34:54;;;;;;;5.72;2.65;;;;;;;;;;5007778;28;20205;-59
2022/06/19 03:37:21;;;;;;;7.28;3.13;;;;;;;;;;5008256;28;20209;-59
2022/06/19 03:39:48;;;;;;;6.38;2.42;;;;;;;;;;5008371;28;20211;-58
2022/06/19 03:42:16;;;;;;;7.20;2.65;;;;;;;;;;5008213;28;20233;-58
2022/06/19 03:44:45;;;;;;;4.00;2.40;;;;;;;;;;5008362;28;20754;-59
2022/06/19 03:47:13;;;;;;;7.28;3.08;;;;;;;;;;5008438;28;20248;-59
2022/06/19 03:49:40;;;;;;;7.78;2.88;;;;;;;;;;5008803;28;20667;-58
2022/06/19 03:52:08;;;;;;;4.97;3.30;;;;;;;;;;5008734;28;20251;-58
2022/06/19 03:54:35;;;;;;;2.58;2.38;;;;;;;;;;5007944;28;20657;-58
2022/06/19 03:57:02;;;;;;;8.20;2.75;;;;;;;;;;5008715;28;20213;-58
2022/06/19 03:59:29;;;;;;;5.30;2.70;;;;;;;;;;5008609;28;20208;-59
2022/06/19 04:01:58;;;;;;;3.78;2.72;;;;;;;;;;5008396;28;20201;-59
2022/06/19 04:04:25;;;;;;;5.75;2.50;;;;;;;;;;5008748;28;20204;-59
2022/06/19 04:06:52;;;;;;;8.10;2.72;;;;;;;;;;5008152;28;20275;-59
2022/06/19 04:09:19;;;;;;;7.13;2.97;;;;;;;;;;5008364;28;20296;-59
2022/06/19 04:11:46;;;;;;;3.33;2.67;;;;;;;;;;5007873;28;20205;-59
2022/06/19 04:14:15;;;;;;;4.00;2.60;;;;;;;;;;5009155;28;20201;-59
2022/06/19 04:16:43;;;;;;;4.97;2.58;;;;;;;;;;5011076;28;20201;-59
2022/06/19 04:19:11;;;;;;;7.97;2.78;;;;;;;;;;5013482;28;20411;-59
2022/06/19 04:21:41;;;;;;;3.67;2.55;;;;;;;;;;5012859;28;20213;-59
2022/06/19 04:24:08;;;;;;;5.85;2.53;;;;;;;;;;5013174;28;20247;-58
2022/06/19 04:26:37;;;;;;;7.30;2.67;;;;;;;;;;5012326;28;20233;-59
2022/06/19 04:29:04;;;;;;;8.27;3.28;;;;;;;;;;5012470;28;20270;-59
2022/06/19 04:31:31;;;;;;;5.95;2.60;;;;;;;;;;5012616;28;20308;-59
2022/06/19 04:33:58;;;;;;;5.95;2.65;;;;;;;;;;5012787;28;20205;-59
2022/06/19 04:36:28;;;;;;;6.60;2.60;;;;;;;;;;5012514;28;20279;-59
2022/06/19 04:38:56;;;;;;;5.38;2.58;;;;;;;;;;5012535;28;20209;-59
2022/06/19 04:41:24;;;;;;;4.13;2.53;;;;;;;;;;5012312;28;20271;-59
2022/06/19 04:43:52;;;;;;;4.30;2.67;;;;;;;;;;5012953;28;20225;-60
2022/06/19 04:46:19;;;;;;;3.95;2.28;;;;;;;;;;5012001;28;20675;-60
2022/06/19 04:48:47;;;;;;;4.55;2.50;;;;;;;;;;5012586;28;20201;-60
2022/06/19 04:51:14;;;;;;;4.18;2.10;;;;;;;;;;5012375;28;20201;-59
2022/06/19 04:53:43;;;;;;;5.65;2.50;;;;;;;;;;5012723;28;20209;-60
2022/06/19 04:56:11;;;;;;;8.85;2.70;;;;;;;;;;5012174;28;20216;-60
2022/06/19 04:58:38;;;;;;;7.22;2.72;;;;;;;;;;4997058;28;20205;-60
2022/06/19 05:01:09;;;;;;;5.65;2.47;;;;;;;;;;5012333;28;20208;-60
2022/06/19 05:03:36;;;;;;;5.68;2.53;;;;;;;;;;5011634;28;20221;-60
2022/06/19 05:06:03;;;;;;;3.38;2.63;;;;;;;;;;5012267;28;20212;-60
2022/06/19 05:08:30;;;;;;;4.65;2.50;;;;;;;;;;5009404;28;20213;-60
2022/06/19 05:10:59;;;;;;;4.57;2.35;;;;;;;;;;4993026;28;20213;-60
2022/06/19 05:13:26;;;;;;;5.68;2.63;;;;;;;;;;5009933;28;20197;-60
2022/06/19 05:16:02;;;;;;;6.40;2.85;;;;;;;;;;5011880;28;20591;-62
2022/06/19 05:18:29;;;;;;;3.65;2.42;;;;;;;;;;5011641;28;20625;-60
2022/06/19 05:20:56;;;;;;;4.03;2.38;;;;;;;;;;5011613;28;20216;-57
2022/06/19 05:23:23;;;;;;;4.60;2.33;;;;;;;;;;5012389;28;20233;-60
2022/06/19 05:25:50;;;;;;;10.98;2.60;;;;;;;;;;5011871;28;20225;-61
2022/06/19 05:28:19;;;;;;;6.00;2.92;;;;;;;;;;5010431;28;20240;-60
2022/06/19 05:30:46;;;;;;;6.20;2.65;;;;;;;;;;5011215;28;20278;-60
2022/06/19 05:33:13;;;;;;;5.32;2.60;;;;;;;;;;5011722;28;20674;-62
2022/06/19 05:35:40;;;;;;;9.30;3.03;;;;;;;;;;5011818;28;20213;-60
2022/06/19 05:38:07;;;;;;;7.82;2.50;;;;;;;;;;5011455;28;20204;-60
2022/06/19 05:40:34;;;;;;;9.18;2.70;;;;;;;;;;5011446;28;20205;-60
2022/06/19 05:43:01;;;;;;;4.22;2.90;;;;;;;;;;5010476;28;20228;-60
2022/06/19 05:45:29;;;;;;;4.40;2.40;;;;;;;;;;5012233;28;20213;-61
2022/06/19 05:48:10;;;;;;;6.55;3.10;;;;;;;;;;5011568;28;20216;-60
2022/06/19 05:50:37;;;;;;;7.70;2.70;;;;;;;;;;5011121;28;20205;-60
2022/06/19 05:53:04;;;;;;;12.07;3.17;;;;;;;;;;5009246;28;20212;-60
2022/06/19 05:55:31;;;;;;;4.45;2.53;;;;;;;;;;5007394;28;20209;-58
2022/06/19 05:57:58;;;;;;;5.30;2.72;;;;;;;;;;5007714;28;20271;-61
2022/06/19 06:00:25;;;;;;;5.45;2.47;;;;;;;;;;5009117;28;20209;-58
2022/06/19 06:02:53;;;;;;;4.15;2.67;;;;;;;;;;5011017;28;20232;-59
2022/06/19 06:05:20;;;;;;;7.63;2.72;;;;;;;;;;5011701;28;20652;-60
2022/06/19 06:07:49;;;;;;;5.18;2.58;;;;;;;;;;5011253;28;20212;-59
2022/06/19 06:10:16;;;;;;;6.82;2.40;;;;;;;;;;5009413;28;20233;-60
2022/06/19 06:12:43;;;;;;;3.40;2.38;;;;;;;;;;5028117;28;20590;-60
2022/06/19 06:15:11;;;;;;;3.65;2.38;;;;;;;;;;5026646;28;20209;-58
2022/06/19 06:17:38;;;;;;;4.38;2.78;;;;;;;;;;5011173;28;20216;-59
2022/06/19 06:20:07;;;;;;;4.93;2.25;;;;;;;;;;5011169;28;20262;-59
2022/06/19 06:22:34;;;;;;;7.97;2.65;;;;;;;;;;5010983;28;20211;-59
2022/06/19 06:25:01;;;;;;;7.88;2.40;;;;;;;;;;5010397;28;20263;-59
2022/06/19 06:27:28;;;;;;;7.28;2.55;;;;;;;;;;5010512;28;20258;-59
2022/06/19 06:29:55;;;;;;;5.65;3.08;;;;;;;;;;5010959;28;20227;-59
2022/06/19 06:32:22;;;;;;;11.00;2.63;;;;;;;;;;5010946;28;20260;-59
2022/06/19 06:34:49;;;;;;;6.75;2.60;;;;;;;;;;5010572;28;20197;-59
2022/06/19 06:37:18;;;;;;;4.03;2.58;;;;;;;;;;5021147;28;20971;-61
2022/06/19 06:39:45;;;;;;;10.35;2.38;;;;;;;;;;5021299;28;20741;-58
2022/06/19 06:42:12;;;;;;;5.32;2.50;;;;;;;;;;5014557;28;20299;-58
2022/06/19 06:44:39;;;;;;;6.28;2.50;;;;;;;;;;5012708;28;20228;-59
2022/06/19 06:47:06;;;;;;;5.65;2.78;;;;;;;;;;5013274;28;20202;-59
2022/06/19 06:49:34;;;;;;;9.15;2.78;;;;;;;;;;5016553;28;20777;-59
2022/06/19 06:52:01;;;;;;;12.35;2.72;;;;;;;;;;5023176;28;20216;-59
2022/06/19 06:54:29;;;;;;;10.48;3.15;;;;;;;;;;5010497;28;20228;-59
2022/06/19 06:56:56;;;;;;;5.45;3.33;;;;;;;;;;5010705;28;20213;-59
2022/06/19 06:59:24;;;;;;;7.40;3.42;;;;;;;;;;5009935;28;20584;-59
2022/06/19 07:01:51;;;;;;;10.70;3.42;;;;;;;;;;5010475;28;20224;-59
2022/06/19 07:04:18;;;;;;;5.28;3.85;;;;;;;;;;5010274;28;20224;-59
2022/06/19 07:06:45;;;;;;;10.10;3.85;;;;;;;;;;5010845;28;20231;-59
2022/06/19 07:09:12;;;;;;;13.50;3.65;;;;;;;;;;5020168;28;20262;-59
2022/06/19 07:11:41;;;;;;;4.15;3.50;;;;;;;;;;5019080;28;20209;-60
2022/06/19 07:14:08;;;;;;;7.07;3.55;;;;;;;;;;4996041;28;20255;-59
2022/06/19 07:16:35;;;;;;;9.68;3.55;;;;;;;;;;5009500;28;20209;-60
2022/06/19 07:19:02;;;;;;;5.10;3.75;;;;;;;;;;5008524;28;20208;-59
2022/06/19 07:21:29;;;;;;;9.35;3.95;;;;;;;;;;5008570;28;20278;-59
2022/06/19 07:23:56;;;;;;;4.00;3.70;;;;;;;;;;5009320;28;20710;-60
2022/06/19 07:26:24;;;;;;;4.85;3.30;;;;;;;;;;5008316;28;20584;-60
2022/06/19 07:28:52;;;;;;;6.50;3.58;;;;;;;;;;5008709;28;20244;-60
2022/06/19 07:31:19;;;;;;;6.82;4.20;;;;;;;;;;5008838;28;20209;-59
2022/06/19 07:33:46;;;;;;;8.68;4.22;;;;;;;;;;5008774;28;20201;-60
2022/06/19 07:36:15;;;;;;;9.13;4.05;;;;;;;;;;5008570;28;20254;-60
2022/06/19 07:38:42;;;;;;;5.20;3.90;;;;;;;;;;5008936;28;20200;-60
2022/06/19 07:41:09;;;;;;;8.88;4.00;;;;;;;;;;5006655;28;20740;-60
2022/06/19 07:43:36;;;;;;;6.85;3.88;;;;;;;;;;5007948;28;20221;-60
2022/06/19 07:46:04;;;;;;;7.50;4.72;;;;;;;;;;5008742;28;20795;-60
2022/06/19 07:51:31;;;;;;;6.93;3.97;;;;;;;;;;4924351;29;20289;-60
2022/06/19 07:53:58;;;;;;;8.73;4.45;;;;;;;;;;4927771;29;20241;-61
2022/06/19 07:56:25;;;;;;;7.18;4.15;;;;;;;;;;4963633;28;20219;-60
2022/06/19 07:58:53;;;;;;;9.18;4.63;;;;;;;;;;5007828;28;20737;-61
2022/06/19 08:01:21;;;;;;;8.45;4.10;;;;;;;;;;5006791;28;20208;-59
2022/06/19 08:03:48;;;;;;;7.00;4.00;;;;;;;;;;5008670;28;20239;-60
2022/06/19 08:06:17;;;;;;;8.85;4.22;;;;;;;;;;5008124;28;20212;-60
2022/06/19 08:08:44;;;;;;;5.53;4.25;;;;;;;;;;5008289;28;20680;-61
2022/06/19 08:11:11;;;;;;;5.38;3.95;;;;;;;;;;5008400;28;20196;-61
2022/06/19 08:13:39;;;;;;;13.88;4.43;;;;;;;;;;5009330;28;20211;-62
2022/06/19 08:16:07;;;;;;;4.88;4.40;;;;;;;;;;5009025;28;20201;-60
2022/06/19 08:18:36;;;;;;;4.95;4.38;;;;;;;;;;5007147;28;20211;-63
2022/06/19 08:21:15;;;;;;;4.45;4.05;;;;;;;;;;5008123;28;20200;-63
2022/06/19 08:23:42;;;;;;;9.15;4.78;;;;;;;;;;5005235;28;20223;-64
2022/06/19 08:26:09;;;;;;;4.07;3.88;;;;;;;;;;5008341;28;20236;-61
2022/06/19 08:28:41;;;;;;;6.03;4.38;;;;;;;;;;5008299;28;20236;-61
2022/06/19 08:31:08;;;;;;;6.18;4.10;;;;;;;;;;5008719;28;20686;-60
2022/06/19 08:33:36;;;;;;;8.75;4.90;;;;;;;;;;5008619;28;20204;-58
2022/06/19 08:36:05;;;;;;;6.03;4.50;;;;;;;;;;5009035;28;20216;-59
2022/06/19 08:38:34;;;;;;;5.70;4.30;;;;;;;;;;5008055;28;20204;-59
2022/06/19 08:41:16;;;;;;;4.43;4.03;;;;;;;;;;5007457;28;20204;-59
2022/06/19 08:43:56;;;;;;;6.50;4.30;;;;;;;;;;5008587;28;20250;-60
2022/06/19 08:46:27;;;;;;;4.55;4.20;;;;;;;;;;5004967;28;20208;-60
2022/06/19 08:48:58;;;;;;;4.80;4.40;;;;;;;;;;5008858;28;20200;-60
2022/06/19 08:51:30;;;;;;;5.90;4.57;;;;;;;;;;5009004;28;20213;-60
2022/06/19 08:54:03;;;;;;;4.80;4.32;;;;;;;;;;5008752;28;20200;-63
2022/06/19 08:56:34;;;;;;;6.07;4.50;;;;;;;;;;5008621;28;20228;-60
2022/06/19 08:59:02;;;;;;;4.60;4.05;;;;;;;;;;5008728;28;20267;-60
2022/06/19 09:01:33;;;;;;;7.07;4.25;;;;;;;;;;5019199;28;20584;-61
2022/06/19 09:06:57;;;;;;;7.53;4.20;;;;;;;;;;5000780;28;20216;-61
2022/06/19 09:09:31;;;;;;;7.10;4.15;;;;;;;;;;5010552;28;20579;-60
2022/06/19 09:12:03;;;;;;;8.07;4.47;;;;;;;;;;5015321;28;20212;-61
2022/06/19 09:14:35;;;;;;;5.93;4.13;;;;;;;;;;5010913;28;20271;-60
2022/06/19 09:17:08;;;;;;;6.45;3.88;;;;;;;;;;4999296;28;20204;-60
2022/06/19 09:19:42;;;;;;;4.05;3.75;;;;;;;;;;5008673;28;20266;-60
2022/06/19 09:22:13;;;;;;;4.82;4.40;;;;;;;;;;4992873;28;20208;-60
2022/06/19 09:24:55;;;;;;;5.70;4.93;;;;;;;;;;5001941;28;20220;-60
2022/06/19 09:27:25;;;;;;;5.05;4.53;;;;;;;;;;5011371;28;20243;-61
2022/06/19 09:29:55;;;;;;;5.20;4.25;;;;;;;;;;5011886;28;20216;-61
2022/06/19 09:32:24;;;;;;;4.63;4.32;;;;;;;;;;5012016;28;20208;-61
2022/06/19 09:34:57;;;;;;;4.75;4.30;;;;;;;;;;5011838;28;20209;-62
2022/06/19 09:37:27;;;;;;;4.55;4.20;;;;;;;;;;5011688;28;20204;-62
2022/06/19 09:39:57;;;;;;;4.38;4.05;;;;;;;;;;5011654;28;20208;-66
2022/06/19 09:42:27;;;;;;;4.40;4.10;;;;;;;;;;5011452;28;20216;-62
2022/06/19 09:44:59;;;;;;;6.38;4.30;;;;;;;;;;5011645;28;20224;-61
2022/06/19 09:47:30;;;;;;;4.63;4.22;;;;;;;;;;5011103;28;20215;-73
2022/06/19 09:50:01;;;;;;;5.25;4.43;;;;;;;;;;5011352;28;20208;-61
2022/06/19 09:52:31;;;;;;;5.25;4.78;;;;;;;;;;5011034;28;20214;-62
2022/06/19 09:55:03;;;;;;;6.57;4.38;;;;;;;;;;5011408;28;20208;-72
2022/06/19 09:57:31;;;;;;;6.07;4.22;;;;;;;;;;5013033;28;20208;-68
2022/06/19 10:00:29;;;;;;;4.65;4.25;;;;;;;;;;5010036;28;20212;-61
2022/06/19 10:02:57;;;;;;;4.25;3.95;;;;;;;;;;5005802;28;20212;-61
2022/06/19 10:05:32;;;;;;;4.68;4.30;;;;;;;;;;4998789;28;20679;-61
2022/06/19 10:08:03;;;;;;;6.30;4.75;;;;;;;;;;4995012;28;20204;-61
2022/06/19 10:10:32;;;;;;;9.82;4.40;;;;;;;;;;5008111;28;20208;-60
2022/06/19 10:13:00;;;;;;;4.57;4.22;;;;;;;;;;5004293;28;20659;-61
2022/06/19 10:15:30;;;;;;;5.22;4.82;;;;;;;;;;5008108;28;20201;-60
2022/06/19 10:17:59;;;;;;;11.32;5.45;;;;;;;;;;5010505;28;20208;-59
2022/06/19 10:20:30;;;;;;;4.43;4.13;;;;;;;;;;5009531;28;20212;-59
2022/06/19 10:23:03;;;;;;;4.75;4.28;;;;;;;;;;5009518;28;20212;-59
2022/06/19 10:25:41;;;;;;;4.75;4.35;;;;;;;;;;5009779;28;20236;-68
2022/06/19 10:28:17;;;;;;;11.10;4.68;;;;;;;;;;5011837;28;20236;-59
2022/06/19 10:30:49;;;;;;;5.03;4.63;;;;;;;;;;5005770;28;20207;-59
2022/06/19 10:33:21;;;;;;;5.50;4.75;;;;;;;;;;5006501;28;20212;-60
2022/06/19 10:35:51;;;;;;;6.35;4.78;;;;;;;;;;5007597;28;20676;-60
2022/06/19 10:38:36;;;;;;;5.38;4.80;;;;;;;;;;5006523;28;20204;-60
2022/06/19 10:41:06;;;;;;;5.00;4.55;;;;;;;;;;5005888;28;20216;-60
2022/06/19 10:43:42;;;;;;;12.88;4.63;;;;;;;;;;5006302;28;20224;-60
2022/06/19 10:46:10;;;;;;;7.40;4.60;;;;;;;;;;4999909;28;20231;-60
2022/06/19 10:48:41;;;;;;;7.35;4.75;;;;;;;;;;5004224;28;20216;-60
2022/06/19 10:51:26;;;;;;;7.28;5.10;;;;;;;;;;5005420;28;20220;-60
2022/06/19 10:54:02;;;;;;;5.10;4.60;;;;;;;;;;5005721;28;20234;-60
2022/06/19 10:56:35;;;;;;;6.72;4.95;;;;;;;;;;5005361;28;20864;-61
2022/06/19 10:59:04;;;;;;;5.82;4.40;;;;;;;;;;5008143;28;20204;-62
2022/06/19 11:04:19;;;;;;;5.10;4.78;;;;;;;;;;5005784;28;20203;-61
2022/06/19 11:06:50;;;;;;;5.32;4.75;;;;;;;;;;5005095;28;20201;-61
2022/06/19 11:09:19;;;;;;;5.63;5.07;;;;;;;;;;5004698;28;20204;-68
2022/06/19 11:11:48;;;;;;;6.32;4.80;;;;;;;;;;5004839;28;20200;-62
2022/06/19 11:14:28;;;;;;;9.75;4.97;;;;;;;;;;5006081;28;20200;-62
2022/06/19 11:16:57;;;;;;;5.72;4.55;;;;;;;;;;5004720;28;20301;-61
2022/06/19 11:19:45;;;;;;;6.10;4.45;;;;;;;;;;5004022;28;20232;-62
2022/06/19 11:22:28;;;;;;;4.85;4.45;;;;;;;;;;4992701;28;20215;-70
2022/06/19 11:24:55;;;;;;;5.32;4.72;;;;;;;;;;5003139;28;20278;-65
2022/06/19 11:27:24;;;;;;;6.40;4.30;;;;;;;;;;5003154;28;20399;-60
2022/06/19 11:29:52;;;;;;;4.93;4.63;;;;;;;;;;5003052;28;20208;-63
2022/06/19 11:32:20;;;;;;;6.15;4.53;;;;;;;;;;4999874;28;20212;-61
2022/06/19 11:34:56;;;;;;;8.75;4.65;;;;;;;;;;5004618;28;20205;-62
2022/06/19 11:37:26;;;;;;;5.15;4.18;;;;;;;;;;5002223;28;20207;-62
2022/06/19 11:39:54;;;;;;;5.68;5.18;;;;;;;;;;5003983;28;20211;-61
2022/06/19 11:42:29;;;;;;;4.35;4.10;;;;;;;;;;5004067;28;20327;-62
2022/06/19 11:44:58;;;;;;;7.38;4.32;;;;;;;;;;5003824;28;20224;-62
2022/06/19 11:47:26;;;;;;;6.05;4.60;;;;;;;;;;5003798;28;20219;-62
2022/06/19 11:50:08;;;;;;;6.10;4.80;;;;;;;;;;5004046;28;20582;-62
2022/06/19 11:52:37;;;;;;;5.43;4.28;;;;;;;;;;5004273;28;20234;-62
2022/06/19 11:55:04;;;;;;;4.28;3.97;;;;;;;;;;5004879;28;20209;-63
2022/06/19 11:57:33;;;;;;;4.88;4.50;;;;;;;;;;5012142;28;20212;-62
2022/06/19 12:00:02;;;;;;;4.57;4.18;;;;;;;;;;5002569;28;20216;-62
2022/06/19 12:02:32;;;;;;;7.38;4.45;;;;;;;;;;5006010;28;20215;-62
2022/06/19 12:05:01;;;;;;;5.13;4.63;;;;;;;;;;5004420;28;20764;-63
2022/06/19 12:07:29;;;;;;;8.38;4.85;;;;;;;;;;5003882;28;20212;-63
2022/06/19 12:09:59;;;;;;;5.18;4.70;;;;;;;;;;4999129;28;20212;-62
2022/06/19 12:12:27;;;;;;;7.63;4.43;;;;;;;;;;5003813;28;20239;-61
2022/06/19 12:15:00;;;;;;;5.60;4.47;;;;;;;;;;5005699;28;20223;-60
2022/06/19 12:17:36;;;;;;;7.18;4.65;;;;;;;;;;5002185;28;20667;-62
2022/06/19 12:20:18;;;;;;;6.32;4.78;;;;;;;;;;5003991;28;20738;-61
2022/06/19 12:22:48;;;;;;;6.80;4.75;;;;;;;;;;5003221;28;20208;-61
2022/06/19 12:25:18;;;;;;;4.75;4.18;;;;;;;;;;5003758;28;20294;-61
2022/06/19 12:27:49;;;;;;;4.88;4.22;;;;;;;;;;5003533;28;20239;-61
2022/06/19 12:30:20;;;;;;;7.70;4.65;;;;;;;;;;5003025;28;20215;-61
2022/06/19 12:32:49;;;;;;;6.95;4.60;;;;;;;;;;5002131;28;20768;-69
2022/06/19 12:35:21;;;;;;;4.65;4.25;;;;;;;;;;4985406;28;20201;-62
2022/06/19 12:37:49;;;;;;;5.75;5.28;;;;;;;;;;5007280;28;20204;-62
2022/06/19 12:40:19;;;;;;;5.82;5.30;;;;;;;;;;5008407;28;20232;-62
2022/06/19 12:42:50;;;;;;;9.25;4.80;;;;;;;;;;5008440;28;20209;-62
2022/06/19 12:45:24;;;;;;;4.93;4.43;;;;;;;;;;5008498;28;20239;-62
2022/06/19 12:47:57;;;;;;;11.60;4.82;;;;;;;;;;5008627;28;20251;-62
2022/06/19 12:50:34;;;;;;;4.97;4.57;;;;;;;;;;5007316;28;20854;-62
2022/06/19 12:53:09;;;;;;;5.07;4.40;;;;;;;;;;5007807;28;20216;-62
2022/06/19 12:55:43;;;;;;;8.27;5.25;;;;;;;;;;5008651;28;20200;-62
2022/06/19 12:58:34;;;;;;;5.13;4.80;;;;;;;;;;5008401;28;20212;-62
2022/06/19 13:01:02;;;;;;;6.32;5.15;;;;;;;;;;4984505;28;20200;-62
2022/06/19 13:03:39;;;;;;;5.00;4.60;;;;;;;;;;5010160;28;20781;-62
2022/06/19 13:06:16;;;;;;;4.70;4.30;;;;;;;;;;5007726;28;20236;-62
2022/06/19 13:08:50;;;;;;;7.93;4.88;;;;;;;;;;5007788;28;20215;-62
2022/06/19 13:11:24;;;;;;;5.10;4.68;;;;;;;;;;5007151;28;20271;-62
2022/06/19 13:14:02;;;;;;;7.03;4.38;;;;;;;;;;5007255;28;20220;-61
2022/06/19 13:16:35;;;;;;;5.28;4.78;;;;;;;;;;5006159;28;20553;-62
2022/06/19 13:19:07;;;;;;;4.97;4.57;;;;;;;;;;5004321;28;20748;-62
2022/06/19 13:21:41;;;;;;;5.80;4.57;;;;;;;;;;5004902;28;20801;-62
2022/06/19 13:24:14;;;;;;;4.80;4.40;;;;;;;;;;5005179;28;20303;-62
2022/06/19 13:29:38;;;;;;;5.82;4.70;;;;;;;;;;5005148;28;20294;-62
2022/06/19 13:32:08;;;;;;;6.50;4.88;;;;;;;;;;5006131;28;20267;-62
2022/06/19 13:34:38;;;;;;;4.93;4.57;;;;;;;;;;5005615;28;20698;-62
2022/06/19 13:37:13;;;;;;;7.28;5.53;;;;;;;;;;5005786;28;20679;-63
2022/06/19 13:39:45;;;;;;;5.70;4.65;;;;;;;;;;5006521;28;20208;-62
2022/06/19 13:42:24;;;;;;;5.10;4.63;;;;;;;;;;5004289;28;20209;-64
2022/06/19 13:44:59;;;;;;;10.10;5.00;;;;;;;;;;5004588;28;20215;-62
2022/06/19 13:47:29;;;;;;;7.20;5.10;;;;;;;;;;5005947;28;20258;-63
2022/06/19 13:49:59;;;;;;;5.70;5.15;;;;;;;;;;5006099;28;20212;-62
2022/06/19 13:52:33;;;;;;;5.53;5.13;;;;;;;;;;5006869;28;20212;-62
2022/06/19 13:55:04;;;;;;;6.50;5.88;;;;;;;;;;5005770;28;20697;-61
2022/06/19 13:57:37;;;;;;;6.93;4.70;;;;;;;;;;5006285;28;20701;-62
2022/06/19 14:00:25;;;;;;;7.40;5.47;;;;;;;;;;5005469;28;20240;-62
2022/06/19 14:03:02;;;;;;;6.10;5.18;;;;;;;;;;5003606;28;20557;-62
2022/06/19 14:05:31;;;;;;;7.43;5.00;;;;;;;;;;5007432;28;20251;-62
2022/06/19 14:08:06;;;;;;;5.07;4.68;;;;;;;;;;5007153;28;20220;-63
2022/06/19 14:10:37;;;;;;;8.65;5.20;;;;;;;;;;5007578;28;20223;-63
2022/06/19 14:13:09;;;;;;;5.00;4.55;;;;;;;;;;5003660;28;20231;-62
2022/06/19 14:15:43;;;;;;;7.63;4.93;;;;;;;;;;5005954;28;20256;-63
2022/06/19 14:18:14;;;;;;;7.93;5.07;;;;;;;;;;5006770;28;20213;-63
2022/06/19 14:20:49;;;;;;;6.65;4.72;;;;;;;;;;5006797;28;20773;-62
2022/06/19 14:23:20;;;;;;;5.20;4.70;;;;;;;;;;5022088;28;20207;-63
2022/06/19 14:25:53;;;;;;;10.73;5.00;;;;;;;;;;5012143;28;20239;-63
2022/06/19 14:28:25;;;;;;;5.45;4.75;;;;;;;;;;5004856;28;20243;-62
2022/06/19 14:30:55;;;;;;;6.45;5.18;;;;;;;;;;5006260;28;20614;-62
2022/06/19 14:33:40;;;;;;;5.57;5.15;;;;;;;;;;5005644;28;20212;-62
2022/06/19 14:36:11;;;;;;;5.00;4.70;;;;;;;;;;4990595;28;20208;-65
2022/06/19 14:38:38;;;;;;;9.15;5.70;;;;;;;;;;5004913;28;20209;-63
2022/06/19 14:41:08;;;;;;;8.68;5.15;;;;;;;;;;5005048;28;20204;-68
2022/06/19 14:43:53;;;;;;;6.97;5.53;;;;;;;;;;5004422;28;20208;-62
2022/06/19 14:46:24;;;;;;;8.35;5.00;;;;;;;;;;5005469;28;20224;-63
2022/06/19 14:48:56;;;;;;;6.57;5.50;;;;;;;;;;5005007;28;20351;-62
2022/06/19 14:51:31;;;;;;;7.97;5.03;;;;;;;;;;5004899;28;20216;-62
2022/06/19 14:54:09;;;;;;;7.72;4.95;;;;;;;;;;5005116;28;20204;-62
2022/06/19 14:57:03;;;;;;;5.45;4.93;;;;;;;;;;5004703;28;20266;-63
2022/06/19 14:59:32;;;;;;;5.18;4.72;;;;;;;;;;4958194;28;20208;-61
2022/06/19 15:02:00;;;;;;;6.65;5.10;;;;;;;;;;5004378;28;20219;-61
2022/06/19 15:04:28;;;;;;;5.38;4.82;;;;;;;;;;5004659;28;20208;-61
2022/06/19 15:07:00;;;;;;;7.45;5.13;;;;;;;;;;5005048;28;20231;-61
2022/06/19 15:09:29;;;;;;;9.55;5.63;;;;;;;;;;5004868;28;20204;-61
2022/06/19 15:12:08;;;;;;;5.03;4.68;;;;;;;;;;5004894;28;20200;-63